Time;durP1;ratioP1;P1;durP2;ratioP2;P2;SDS_P1;SDS_P2;PMS_P1;PMS_P2;Temp;Humidity;BMP_temperature;BMP_pressure;BME280_temperature;BME280_humidity;BME280_pressure;Samples;Min_cycle;Max_cycle;Signal;HPM_P1;HPM_P2
2022/07/10 00:00:10;;;;;;;;;;;21.60;67.70;;;21.05;62.82;96086.34;4233149;33;19902;-84
2022/07/10 00:02:44;;;;;;;;;;;21.60;67.70;;;21.06;62.79;96085.22;4231990;33;19980;-83
2022/07/10 00:05:13;;;;;;;;;;;21.60;67.70;;;21.04;62.63;96084.72;4233067;33;19909;-83
2022/07/10 00:07:42;;;;;;;;;;;21.60;67.70;;;21.04;62.47;96081.94;4256745;33;20008;-84
2022/07/10 00:10:11;;;;;;;;;;;21.70;67.90;;;21.04;62.89;96070.81;4233950;33;19909;-83
2022/07/10 00:12:40;;;;;;;;;;;21.60;67.70;;;21.05;62.77;96071.63;4232462;33;20037;-83
2022/07/10 00:15:09;;;;;;;;;;;21.60;67.80;;;21.03;62.48;96069.19;4217410;33;20065;-84
2022/07/10 00:17:39;;;;;;;;;;;21.70;67.80;;;21.03;62.73;96065.59;4204711;33;19909;-84
2022/07/10 00:20:11;;;;;;;;;;;21.60;67.80;;;21.03;62.68;96062.81;4227650;33;19902;-85
2022/07/10 00:22:39;;;;;;;;;;;21.70;67.90;;;21.02;62.68;96064.78;4204103;33;19903;-85
2022/07/10 00:25:11;;;;;;;;;;;21.60;67.90;;;21.02;62.69;96064.78;4242830;33;19909;-85
2022/07/10 00:27:40;;;;;;;;;;;21.70;67.90;;;21.02;62.88;96067.56;4232884;33;19909;-84
2022/07/10 00:30:10;;;;;;;;;;;21.60;67.90;;;21.02;63.11;96058.41;4232838;33;19910;-83
2022/07/10 00:32:38;;;;;;;;;;;21.70;68.00;;;21.03;62.90;96062.81;4233255;33;19909;-84
2022/07/10 00:35:09;;;;;;;;;;;21.60;67.80;;;21.01;63.07;96065.94;4209184;33;20000;-85
2022/07/10 00:37:37;;;;;;;;;;;21.60;67.90;;;21.01;63.53;96065.94;4233664;33;20134;-84
2022/07/10 00:40:08;;;;;;;;;;;21.60;68.00;;;21.02;63.04;96062.00;4256511;33;19902;-84
2022/07/10 00:42:37;;;;;;;;;;;21.60;68.00;;;21.01;63.04;96057.56;4232132;33;19903;-84
2022/07/10 00:45:07;;;;;;;;;;;21.60;68.00;;;21.01;63.20;96065.94;4232333;33;20241;-84
2022/07/10 00:47:36;;;;;;;;;;;21.60;67.90;;;21.01;62.91;96054.78;4232537;33;19910;-84
2022/07/10 00:50:06;;;;;;;;;;;21.60;68.00;;;21.00;63.23;96058.72;4209073;33;20127;-84
2022/07/10 00:52:38;;;;;;;;;;;21.60;68.00;;;21.00;63.10;96055.94;4208591;33;19910;-84
2022/07/10 00:55:08;;;;;;;;;;;21.60;68.00;;;21.00;63.09;96058.72;4232538;33;19902;-84
2022/07/10 00:57:37;;;;;;;;;;;21.60;68.10;;;21.01;62.99;96065.94;4208987;33;20114;-84
2022/07/10 01:00:09;;;;;;;;;;;21.60;68.00;;;21.00;63.13;96056.78;4232438;33;19917;-84
2022/07/10 01:02:38;;;;;;;;;;;21.60;68.10;;;20.98;63.10;96056.31;4231982;33;20172;-85
2022/07/10 01:05:07;;;;;;;;;;;21.60;68.10;;;20.98;63.14;96050.72;4232533;33;19973;-84
2022/07/10 01:07:37;;;;;;;;;;;21.60;68.20;;;20.98;63.05;96045.16;4208893;33;20120;-84
2022/07/10 01:10:07;;;;;;;;;;;21.60;68.10;;;20.98;63.34;96038.78;4232430;33;19913;-83
2022/07/10 01:12:36;;;;;;;;;;;21.60;68.20;;;20.97;63.17;96042.75;4232807;33;19902;-85
2022/07/10 01:15:07;;;;;;;;;;;21.60;68.30;;;20.96;63.75;96039.13;4233335;33;19903;-84
2022/07/10 01:17:36;;;;;;;;;;;21.60;68.10;;;20.97;63.07;96039.97;4232269;33;19920;-83
2022/07/10 01:20:09;;;;;;;;;;;21.60;68.20;;;20.95;62.85;96034.72;4232271;33;19966;-84
2022/07/10 01:22:39;;;;;;;;;;;21.60;68.00;;;20.95;63.09;96023.59;4231794;33;19909;-84
2022/07/10 01:25:10;;;;;;;;;;;21.60;68.00;;;20.96;63.12;96035.53;4208747;33;19970;-84
2022/07/10 01:27:39;;;;;;;;;;;21.60;68.10;;;20.95;63.19;96029.16;4233375;33;20416;-83
2022/07/10 01:30:10;;;;;;;;;;;21.60;68.20;;;20.96;63.48;96027.19;4232149;33;20001;-85
2022/07/10 01:32:39;;;;;;;;;;;21.60;68.20;;;20.95;63.04;96022.78;4257387;33;19902;-84
2022/07/10 01:35:10;;;;;;;;;;;21.60;68.10;;;20.94;63.03;96021.16;4234765;33;19902;-83
2022/07/10 01:37:43;;;;;;;;;;;21.60;68.10;;;20.95;63.14;96023.59;4234793;33;19959;-84
2022/07/10 01:40:12;;;;;;;;;;;21.60;68.30;;;20.94;63.19;96018.38;4234699;33;20137;-84
2022/07/10 01:42:41;;;;;;;;;;;21.50;68.10;;;20.92;63.16;96010.34;4234200;33;20220;-84
2022/07/10 01:45:10;;;;;;;;;;;21.60;68.20;;;20.93;63.35;96008.41;4258392;33;20138;-84
2022/07/10 01:47:39;;;;;;;;;;;21.60;68.40;;;20.92;63.25;96006.78;4234678;33;19910;-84
2022/07/10 01:50:09;;;;;;;;;;;21.50;68.30;;;20.93;63.19;96008.41;4235523;33;19902;-84
2022/07/10 01:52:38;;;;;;;;;;;21.60;68.30;;;20.91;63.11;96010.69;4234000;33;20498;-83
2022/07/10 01:55:09;;;;;;;;;;;21.50;68.20;;;20.90;62.86;96004.34;4234430;33;20096;-83
2022/07/10 01:57:38;;;;;;;;;;;21.50;68.30;;;20.91;63.33;96016.25;4211014;33;19909;-84
2022/07/10 02:00:09;;;;;;;;;;;21.50;68.40;;;20.90;63.49;96014.63;4234410;33;19909;-83
2022/07/10 02:02:41;;;;;;;;;;;21.50;68.40;;;20.90;63.28;96009.06;4233865;33;19925;-84
2022/07/10 02:05:09;;;;;;;;;;;21.50;68.40;;;20.89;63.05;96013.84;4234419;33;20464;-85
2022/07/10 02:07:37;;;;;;;;;;;21.50;68.20;;;20.89;63.26;96001.88;4234397;33;19902;-85
2022/07/10 02:10:09;;;;;;;;;;;21.50;68.30;;;20.88;63.31;96006.66;4234424;33;20225;-84
2022/07/10 02:12:37;;;;;;;;;;;21.50;68.40;;;20.89;63.25;96001.88;4233885;33;19902;-84
2022/07/10 02:15:08;;;;;;;;;;;21.50;68.40;;;20.87;63.26;96005.00;4257188;33;20113;-84
2022/07/10 02:17:37;;;;;;;;;;;21.50;68.40;;;20.88;63.22;96005.81;4188782;33;20004;-85
2022/07/10 02:20:09;;;;;;;;;;;21.50;68.40;;;20.88;63.54;96006.66;4229605;33;20124;-84
2022/07/10 02:22:38;;;;;;;;;;;21.50;68.40;;;20.88;63.45;96011.38;4229168;33;19902;-83
2022/07/10 02:25:09;;;;;;;;;;;21.50;68.40;;;20.87;63.26;96005.00;4205880;33;19903;-84
2022/07/10 02:27:38;;;;;;;;;;;21.50;68.40;;;20.87;63.34;96009.75;4229530;33;19903;-84
2022/07/10 02:30:08;;;;;;;;;;;21.50;68.40;;;20.87;63.58;96009.75;4229428;33;20118;-84
2022/07/10 02:32:37;;;;;;;;;;;21.50;68.50;;;20.86;63.58;96008.94;4205604;33;19926;-84
2022/07/10 02:35:06;;;;;;;;;;;21.50;68.50;;;20.86;63.48;96000.59;4206835;33;19906;-84
2022/07/10 02:37:35;;;;;;;;;;;21.40;68.40;;;20.85;63.30;95998.97;4205815;33;19909;-84
2022/07/10 02:40:04;;;;;;;;;;;21.40;68.40;;;20.85;63.37;95990.63;4229290;33;19903;-83
2022/07/10 02:42:35;;;;;;;;;;;21.50;68.50;;;20.84;63.40;95995.41;4228396;33;20007;-85
2022/07/10 02:45:04;;;;;;;;;;;21.40;68.40;;;20.85;63.42;96002.56;4229151;33;20121;-84
2022/07/10 02:47:33;;;;;;;;;;;21.40;69.30;;;20.85;63.22;95996.19;4206826;33;19910;-84
2022/07/10 02:50:01;;;;;;;;;;;21.40;68.40;;;20.83;63.47;95996.53;4206747;33;20130;-85
2022/07/10 02:52:30;;;;;;;;;;;21.40;68.40;;;20.83;63.31;95988.19;4228692;33;19981;-84
2022/07/10 02:54:59;;;;;;;;;;;21.40;68.50;;;20.83;63.36;95988.19;4205749;33;19903;-85
2022/07/10 02:57:28;;;;;;;;;;;21.40;68.50;;;20.83;63.28;95990.97;4229237;33;19903;-85
2022/07/10 02:59:58;;;;;;;;;;;21.40;68.40;;;20.83;63.53;95995.72;4205591;33;20093;-83
2022/07/10 03:02:27;;;;;;;;;;;21.40;68.40;;;20.83;63.35;96004.91;4205060;33;19909;-84
2022/07/10 03:04:56;;;;;;;;;;;21.40;68.40;;;20.83;63.35;96002.09;4229060;33;20060;-84
2022/07/10 03:07:25;;;;;;;;;;;21.40;68.50;;;20.83;63.57;95999.31;4205577;33;19910;-83
2022/07/10 03:09:53;;;;;;;;;;;21.50;68.60;;;20.82;63.53;95997.69;4228940;33;19903;-84
2022/07/10 03:12:22;;;;;;;;;;;21.40;68.50;;;20.82;63.31;95997.69;4206056;33;20162;-84
2022/07/10 03:14:51;;;;;;;;;;;21.40;69.30;;;20.82;63.47;95994.91;4205509;33;19903;-84
2022/07/10 03:17:21;;;;;;;;;;;21.40;68.40;;;20.82;63.47;95997.69;4211926;33;20007;-84
2022/07/10 03:19:49;;;;;;;;;;;21.40;68.40;;;20.82;63.41;95994.91;4233597;33;20036;-84
2022/07/10 03:22:18;;;;;;;;;;;21.40;68.40;;;20.81;63.47;95992.47;4233979;33;20060;-84
2022/07/10 03:24:47;;;;;;;;;;;21.40;68.40;;;20.82;63.32;95991.31;4233415;33;19935;-84
2022/07/10 03:27:16;;;;;;;;;;;21.40;68.30;;;20.81;63.27;95990.50;4234426;33;20210;-84
2022/07/10 03:29:46;;;;;;;;;;;21.40;68.20;;;20.82;63.38;95994.09;4234445;33;20459;-84
2022/07/10 03:32:14;;;;;;;;;;;21.40;68.40;;;20.81;63.31;95998.84;4232912;33;20111;-83
2022/07/10 03:34:45;;;;;;;;;;;21.40;68.40;;;20.82;63.20;95997.69;4234232;33;19925;-84
2022/07/10 03:37:13;;;;;;;;;;;21.40;68.40;;;20.81;63.41;95996.06;4233361;33;19902;-85
2022/07/10 03:39:42;;;;;;;;;;;21.40;68.30;;;20.81;63.28;96000.81;4233340;33;20129;-84
2022/07/10 03:42:11;;;;;;;;;;;21.40;68.30;;;20.81;63.15;95996.06;4232772;33;19994;-84
2022/07/10 03:44:39;;;;;;;;;;;21.40;68.30;;;20.82;63.36;96000.47;4233170;33;19910;-84
2022/07/10 03:47:08;;;;;;;;;;;21.40;68.30;;;20.82;63.29;95999.66;4233175;33;20475;-85
2022/07/10 03:49:38;;;;;;;;;;;21.40;68.20;;;20.83;63.12;96004.06;4209750;33;20089;-84
2022/07/10 03:52:09;;;;;;;;;;;21.40;68.30;;;20.84;62.97;95997.34;4233910;33;20144;-84
2022/07/10 03:54:37;;;;;;;;;;;21.40;68.10;;;20.85;63.19;95996.19;4232439;33;19946;-85
2022/07/10 03:59:52;;;;;;;;;;;21.50;68.00;;;20.88;63.40;96005.81;4228565;33;19910;-84
2022/07/10 04:02:23;;;;;;;;;;;21.50;68.20;;;20.90;62.98;96003.50;4203976;33;23035;-84
2022/07/10 04:04:52;;;;;;;;;;;21.50;68.00;;;20.92;62.96;96003.97;4204772;33;20086;-84
2022/07/10 04:07:22;;;;;;;;;;;21.50;67.90;;;20.94;62.99;96004.47;4204936;33;19910;-84
2022/07/10 04:09:51;;;;;;;;;;;21.60;68.00;;;20.96;62.98;95999.38;4228308;33;20100;-84
2022/07/10 04:12:19;;;;;;;;;;;21.60;67.70;;;20.97;63.17;95998.22;4181121;33;20167;-85
2022/07/10 04:14:51;;;;;;;;;;;21.60;68.00;;;21.00;62.89;96008.63;4181418;33;20083;-84
2022/07/10 04:17:19;;;;;;;;;;;21.60;67.90;;;21.00;63.08;96003.91;4204734;33;19902;-84
2022/07/10 04:19:48;;;;;;;;;;;21.60;68.00;;;21.02;63.34;96000.75;4228074;33;19904;-84
2022/07/10 04:22:17;;;;;;;;;;;21.60;68.00;;;21.03;62.98;95996.81;4205177;33;19910;-83
2022/07/10 04:24:47;;;;;;;;;;;21.60;67.80;;;21.04;63.13;95998.44;4205522;33;19910;-84
2022/07/10 04:27:16;;;;;;;;;;;21.70;68.10;;;21.05;63.15;95997.28;4228084;33;19903;-84
2022/07/10 04:29:45;;;;;;;;;;;21.70;68.00;;;21.09;63.05;95997.41;4228044;33;19903;-84
2022/07/10 04:32:14;;;;;;;;;;;21.70;68.00;;;21.08;63.17;95999.41;4204226;33;19992;-84
2022/07/10 04:34:43;;;;;;;;;;;21.70;67.90;;;21.10;63.25;95994.31;4204497;33;20210;-84
2022/07/10 04:37:11;;;;;;;;;;;21.70;67.90;;;21.13;63.03;95990.00;4205528;33;19926;-83
2022/07/10 04:39:40;;;;;;;;;;;21.70;67.90;;;21.14;62.94;95991.63;4205446;33;19902;-84
2022/07/10 04:42:10;;;;;;;;;;;21.80;67.90;;;21.17;63.06;95990.13;4180783;33;19902;-84
2022/07/10 04:44:39;;;;;;;;;;;21.80;68.00;;;21.18;63.15;95987.00;4205334;33;19910;-83
2022/07/10 04:47:07;;;;;;;;;;;21.80;68.00;;;21.20;63.06;95986.66;4205386;33;19907;-84
2022/07/10 04:49:36;;;;;;;;;;;21.80;67.90;;;21.22;62.99;95987.94;4205454;33;19902;-85
2022/07/10 04:52:06;;;;;;;;;;;21.80;67.90;;;21.23;62.80;95988.75;4204894;33;19903;-84
2022/07/10 04:54:35;;;;;;;;;;;21.90;67.70;;;21.24;62.84;95980.06;4227900;33;19987;-84
2022/07/10 04:57:04;;;;;;;;;;;21.90;67.70;;;21.27;62.91;95984.94;4204268;33;19903;-84
2022/07/10 04:59:34;;;;;;;;;;;21.90;67.70;;;21.28;62.89;95980.16;4181419;33;20201;-84
2022/07/10 05:02:03;;;;;;;;;;;21.90;67.60;;;21.30;62.58;95977.84;4227258;33;19903;-84
2022/07/10 05:04:32;;;;;;;;;;;21.90;67.60;;;21.30;62.58;95972.28;4227795;33;19910;-84
2022/07/10 05:07:00;;;;;;;;;;;22.00;67.40;;;21.32;62.65;95972.75;4206664;33;19903;-84
2022/07/10 05:09:29;;;;;;;;;;;22.00;67.50;;;21.34;62.77;95973.22;4207902;33;19903;-84
2022/07/10 05:11:58;;;;;;;;;;;22.00;67.20;;;21.37;62.43;95968.94;4206406;33;20456;-84
2022/07/10 05:14:26;;;;;;;;;;;22.00;67.10;;;21.39;62.59;95970.19;4239053;33;20218;-83
2022/07/10 05:16:57;;;;;;;;;;;22.00;67.20;;;21.41;62.69;95967.88;4235870;33;19982;-84
2022/07/10 05:19:25;;;;;;;;;;;22.10;67.30;;;21.42;62.34;95966.72;4234957;33;19955;-83
2022/07/10 05:21:55;;;;;;;;;;;22.10;67.20;;;21.44;62.51;95967.19;4234212;33;19903;-84
2022/07/10 05:24:23;;;;;;;;;;;22.10;67.30;;;21.44;62.42;95967.19;4234849;33;20102;-84
2022/07/10 05:26:52;;;;;;;;;;;22.10;67.20;;;21.45;62.41;95968.00;4234805;33;19909;-84
2022/07/10 05:29:21;;;;;;;;;;;22.10;67.20;;;21.45;62.43;95974.41;4211454;33;19902;-84
2022/07/10 05:31:49;;;;;;;;;;;22.10;67.10;;;21.44;62.33;95964.41;4234346;33;20001;-84
2022/07/10 05:34:19;;;;;;;;;;;22.10;67.20;;;21.44;62.50;95969.97;4234648;33;20071;-85
2022/07/10 05:36:48;;;;;;;;;;;22.10;67.30;;;21.44;62.47;95967.19;4234796;33;20219;-85
2022/07/10 05:39:17;;;;;;;;;;;22.10;67.20;;;21.44;62.57;95966.38;4234916;33;20217;-85
2022/07/10 05:41:45;;;;;;;;;;;22.10;67.40;;;21.43;62.61;95960.00;4234147;33;20078;-85
2022/07/10 05:44:14;;;;;;;;;;;22.10;67.30;;;21.44;62.83;95956.06;4234376;33;19909;-85
2022/07/10 05:46:43;;;;;;;;;;;22.10;67.60;;;21.44;62.57;95944.09;4211105;33;19902;-85
2022/07/10 05:49:11;;;;;;;;;;;22.10;67.50;;;21.44;62.62;95944.09;4235431;33;19925;-85
2022/07/10 05:51:42;;;;;;;;;;;22.10;67.40;;;21.45;62.68;95956.84;4234025;33;20233;-85
2022/07/10 05:54:11;;;;;;;;;;;22.10;67.40;;;21.48;62.67;95960.94;4210968;33;19910;-85
2022/07/10 05:56:40;;;;;;;;;;;22.10;67.40;;;21.48;62.35;95950.59;4258316;33;19902;-85
2022/07/10 05:59:09;;;;;;;;;;;22.20;67.30;;;21.52;62.52;95948.75;4211116;33;19910;-84
2022/07/10 06:01:37;;;;;;;;;;;22.20;67.20;;;21.55;62.53;95950.03;4257695;33;19903;-84
2022/07/10 06:04:06;;;;;;;;;;;22.20;67.10;;;21.56;62.40;95949.66;4235437;33;20017;-84
2022/07/10 06:06:35;;;;;;;;;;;22.20;67.10;;;21.58;62.43;95949.34;4235283;33;20070;-84
2022/07/10 06:09:05;;;;;;;;;;;22.20;67.00;;;21.58;62.39;95943.75;4235276;33;19909;-85
2022/07/10 06:11:35;;;;;;;;;;;22.20;67.00;;;21.57;62.20;95951.28;4234026;33;19902;-84
2022/07/10 06:14:03;;;;;;;;;;;22.20;66.90;;;21.60;62.14;95947.03;4234216;33;20151;-85
2022/07/10 06:16:32;;;;;;;;;;;22.20;66.90;;;21.63;61.98;95940.75;4234044;33;19902;-85
2022/07/10 06:19:01;;;;;;;;;;;22.20;66.80;;;21.66;62.05;95950.41;4233928;33;20159;-86
2022/07/10 06:21:29;;;;;;;;;;;22.30;66.90;;;21.68;62.30;95943.31;4237498;33;19902;-85
2022/07/10 06:23:58;;;;;;;;;;;22.30;66.90;;;21.71;61.89;95948.19;4206083;33;19910;-85
2022/07/10 06:26:28;;;;;;;;;;;22.30;66.70;;;21.72;61.83;95949.00;4229436;33;20148;-85
2022/07/10 06:28:57;;;;;;;;;;;22.30;66.60;;;21.73;62.06;95945.88;4206024;33;19925;-86
2022/07/10 06:31:26;;;;;;;;;;;22.30;66.70;;;21.74;61.99;95941.94;4228973;33;20079;-85
2022/07/10 06:33:54;;;;;;;;;;;22.40;66.50;;;21.74;61.62;95941.09;4229303;33;19903;-85
2022/07/10 06:36:23;;;;;;;;;;;22.30;66.40;;;21.74;61.75;95930.78;4182767;33;19996;-85
2022/07/10 06:38:52;;;;;;;;;;;22.40;66.30;;;21.75;61.47;95937.94;4205780;33;19910;-85
2022/07/10 06:41:20;;;;;;;;;;;22.40;66.20;;;21.75;61.65;95932.38;4205718;33;20225;-84
2022/07/10 06:43:50;;;;;;;;;;;22.40;66.40;;;21.75;61.80;95924.03;4205699;33;20145;-85
2022/07/10 06:46:19;;;;;;;;;;;22.40;66.40;;;21.76;61.73;95922.88;4182425;33;19982;-86
2022/07/10 06:48:47;;;;;;;;;;;22.40;66.60;;;21.76;61.78;95922.06;4229257;33;19910;-85
2022/07/10 06:51:15;;;;;;;;;;;22.40;66.30;;;21.79;61.57;95921.38;4229157;33;19902;-85
2022/07/10 06:53:44;;;;;;;;;;;22.40;66.30;;;21.79;61.44;95914.97;4205575;33;20035;-84
2022/07/10 06:56:14;;;;;;;;;;;22.40;66.20;;;21.83;61.40;95915.91;4205763;33;19955;-84
2022/07/10 06:58:43;;;;;;;;;;;22.40;66.10;;;21.84;61.30;95912.75;4205542;33;19903;-85
2022/07/10 07:01:13;;;;;;;;;;;22.40;66.10;;;21.85;61.51;95914.38;4237622;33;20217;-84
2022/07/10 07:03:42;;;;;;;;;;;22.40;65.90;;;21.88;61.26;95908.09;4210021;33;19903;-84
2022/07/10 07:06:11;;;;;;;;;;;22.50;66.10;;;21.91;61.25;95912.16;4210230;33;20078;-85
2022/07/10 07:08:40;;;;;;;;;;;22.50;66.00;;;21.93;61.30;95915.41;4210238;33;20240;-86
2022/07/10 07:11:08;;;;;;;;;;;22.50;65.90;;;21.94;61.18;95914.25;4233741;33;20003;-86
2022/07/10 07:13:38;;;;;;;;;;;22.50;65.90;;;21.96;61.20;95908.31;4209691;33;19909;-86
2022/07/10 07:16:09;;;;;;;;;;;22.50;65.90;;;21.97;60.95;95909.94;4233617;33;20120;-86
2022/07/10 07:18:47;;;;;;;;;;;22.50;65.70;;;21.99;61.02;95896.47;4233594;33;19902;-86
2022/07/10 07:24:05;;;;;;;;;;;22.60;65.50;;;22.02;60.88;95892.97;4210282;33;19902;-86
2022/07/10 07:26:34;;;;;;;;;;;22.60;65.60;;;22.02;60.67;95896.56;4233327;33;19902;-86
2022/07/10 07:29:02;;;;;;;;;;;22.60;65.30;;;22.00;60.98;95901.72;4209964;33;20010;-85
2022/07/10 07:31:31;;;;;;;;;;;22.60;65.40;;;22.02;60.78;95902.13;4232980;33;20352;-85
2022/07/10 07:34:01;;;;;;;;;;;22.60;65.60;;;22.00;61.17;95895.31;4233383;33;20161;-85
2022/07/10 07:36:30;;;;;;;;;;;22.60;65.70;;;21.96;61.25;95903.56;4233549;33;19929;-85
2022/07/10 07:38:59;;;;;;;;;;;22.60;65.60;;;21.96;61.16;95898.00;4234521;33;20214;-85
2022/07/10 07:41:28;;;;;;;;;;;22.60;65.60;;;21.97;61.07;95899.63;4232995;33;20008;-86
2022/07/10 07:43:56;;;;;;;;;;;22.60;65.90;;;21.97;61.15;95909.94;4209661;33;19921;-86
2022/07/10 07:46:25;;;;;;;;;;;22.60;65.90;;;21.96;61.51;95900.78;4233198;33;20169;-85
2022/07/10 07:48:54;;;;;;;;;;;22.60;66.10;;;21.95;61.25;95907.50;4209846;33;20164;-85
2022/07/10 07:51:24;;;;;;;;;;;22.60;66.00;;;21.95;60.95;95901.94;4232895;33;20540;-86
2022/07/10 07:53:53;;;;;;;;;;;22.50;65.90;;;21.94;61.36;95914.25;4209787;33;20162;-86
2022/07/10 07:56:21;;;;;;;;;;;22.60;66.80;;;21.92;61.37;95909.03;4233184;33;20125;-87
2022/07/10 07:58:50;;;;;;;;;;;22.50;66.00;;;21.93;61.31;95909.84;4233141;33;19918;-87
2022/07/10 08:01:20;;;;;;;;;;;22.60;66.00;;;21.93;61.15;95907.06;4232663;33;19909;-87
2022/07/10 08:03:49;;;;;;;;;;;22.50;66.10;;;21.89;61.63;95903.34;4233055;33;20158;-85
2022/07/10 08:06:17;;;;;;;;;;;22.50;66.20;;;21.90;61.48;95903.00;4233095;33;20145;-87
2022/07/10 08:08:48;;;;;;;;;;;22.50;66.20;;;21.89;61.44;95904.16;4234114;33;20267;-86
2022/07/10 08:11:17;;;;;;;;;;;22.50;66.10;;;21.86;61.30;95902.06;4232940;33;19909;-87
2022/07/10 08:13:45;;;;;;;;;;;22.50;66.20;;;21.84;61.76;95901.59;4232580;33;20103;-86
2022/07/10 08:16:14;;;;;;;;;;;22.50;66.20;;;21.84;61.67;95901.59;4233085;33;19906;-85
2022/07/10 08:18:43;;;;;;;;;;;22.50;66.40;;;21.84;61.73;95909.97;4233040;33;20353;-86
2022/07/10 08:21:11;;;;;;;;;;;22.40;66.20;;;21.80;61.56;95895.13;4209588;33;20176;-87
2022/07/10 08:23:40;;;;;;;;;;;22.40;66.20;;;21.82;61.78;95903.13;4232392;33;19902;-87
2022/07/10 08:26:10;;;;;;;;;;;22.40;66.40;;;21.79;61.67;95898.25;4209463;33;19909;-87
2022/07/10 08:28:39;;;;;;;;;;;22.40;66.30;;;21.77;61.72;95902.19;4209511;33;19909;-85
2022/07/10 08:31:08;;;;;;;;;;;22.40;66.30;;;21.77;61.63;95912.53;4232928;33;20219;-86
2022/07/10 08:33:36;;;;;;;;;;;22.40;66.20;;;21.74;61.95;95908.50;4256201;33;20196;-87
2022/07/10 08:36:06;;;;;;;;;;;22.40;66.40;;;21.71;61.72;95917.56;4232827;33;19909;-86
2022/07/10 08:38:35;;;;;;;;;;;22.30;66.30;;;21.70;61.65;95910.34;4209350;33;19981;-86
2022/07/10 08:41:03;;;;;;;;;;;22.30;66.30;;;21.67;61.77;95913.03;4208799;33;20034;-87
2022/07/10 08:43:33;;;;;;;;;;;22.30;66.40;;;21.65;61.72;95923.72;4232246;33;19902;-87
2022/07/10 08:46:02;;;;;;;;;;;22.30;66.60;;;21.62;61.84;95919.66;4232761;33;20248;-87
2022/07/10 08:48:31;;;;;;;;;;;22.30;66.60;;;21.60;62.01;95924.75;4232663;33;20381;-87
2022/07/10 08:51:00;;;;;;;;;;;22.20;66.60;;;21.57;61.91;95922.63;4233752;33;19909;-87
2022/07/10 08:53:31;;;;;;;;;;;22.20;66.60;;;21.56;62.09;95923.78;4231976;33;20125;-87
2022/07/10 08:56:00;;;;;;;;;;;22.20;66.70;;;21.54;61.87;95926.13;4232399;33;20214;-87
2022/07/10 08:58:29;;;;;;;;;;;22.20;66.60;;;21.52;61.86;95923.69;4232982;33;20173;-86
2022/07/10 09:00:59;;;;;;;;;;;22.20;66.70;;;21.50;61.84;95919.59;4232706;33;19902;-87
2022/07/10 09:03:28;;;;;;;;;;;22.20;66.50;;;21.49;61.79;95918.00;4232904;33;19903;-86
2022/07/10 09:05:57;;;;;;;;;;;22.10;66.60;;;21.46;62.24;95920.31;4209036;33;19910;-86
2022/07/10 09:08:27;;;;;;;;;;;22.10;66.70;;;21.45;61.90;95917.88;4222796;33;20145;-86
2022/07/10 09:11:16;;;;;;;;;;;22.10;66.60;;;21.44;62.18;95928.22;4204321;33;20169;-87
2022/07/10 09:13:52;;;;;;;;;;;22.10;66.70;;;21.41;61.71;95920.53;4181052;33;20067;-87
2022/07/10 09:16:26;;;;;;;;;;;22.10;66.60;;;21.41;62.11;95917.75;4204267;33;19986;-87
2022/07/10 09:18:55;;;;;;;;;;;22.00;66.80;;;21.39;61.93;95908.94;4204336;33;20018;-87
2022/07/10 09:21:24;;;;;;;;;;;22.10;67.10;;;21.38;62.14;95907.31;4203781;33;19914;-85
2022/07/10 09:23:53;;;;;;;;;;;22.00;66.80;;;21.38;62.05;95910.09;4216275;33;19927;-86
2022/07/10 09:26:22;;;;;;;;;;;22.00;66.80;;;21.34;61.87;95906.41;4208811;33;20156;-87
2022/07/10 09:28:54;;;;;;;;;;;22.00;66.80;;;21.34;61.83;95906.41;4232324;33;20119;-87
2022/07/10 09:31:23;;;;;;;;;;;22.00;66.80;;;21.36;61.73;95906.03;4230206;33;19903;-87
2022/07/10 09:33:53;;;;;;;;;;;22.00;66.70;;;21.34;62.17;95898.06;4232262;33;20248;-87
2022/07/10 09:36:22;;;;;;;;;;;22.00;66.90;;;21.35;62.08;95907.22;4232559;33;20094;-86
2022/07/10 09:38:55;;;;;;;;;;;21.90;66.80;;;21.33;61.75;95903.94;4232367;33;19977;-86
2022/07/10 09:41:26;;;;;;;;;;;21.90;66.80;;;21.32;62.05;95908.72;4208350;33;19902;-87
2022/07/10 09:43:55;;;;;;;;;;;21.90;66.90;;;21.33;62.09;95906.72;4233352;33;20053;-86
2022/07/10 09:46:26;;;;;;;;;;;22.00;66.70;;;21.33;62.07;95903.94;4233175;33;20213;-87
2022/07/10 09:49:10;;;;;;;;;;;21.90;66.80;;;21.30;61.57;95899.91;4224655;33;20146;-87
2022/07/10 09:51:44;;;;;;;;;;;22.00;66.80;;;21.31;62.00;95905.09;4178439;33;19918;-86
2022/07/10 09:58:42;;;;;;;;;;;21.90;67.00;;;21.32;61.86;95905.94;4219314;33;19952;-87
2022/07/10 10:06:13;;;;;;;;;;;22.00;66.80;;;21.34;62.19;95905.56;4212188;33;19898;-87
2022/07/10 10:08:50;;;;;;;;;;;22.00;67.00;;;21.33;62.21;95903.94;4222057;28;19903;-80
2022/07/10 10:11:21;;;;;;;;;;;21.90;67.10;;;21.33;61.87;95904.78;4150900;34;19904;-83
2022/07/10 10:13:50;;;;;;;;;;;21.90;66.60;;;21.35;61.84;95899.69;4151178;34;20165;-83
2022/07/10 10:16:19;;;;;;;;;;;22.00;66.90;;;21.35;61.97;95905.25;4151021;34;19911;-83
2022/07/10 10:21:35;;;;;;;;;;;22.00;66.90;;;21.38;62.07;95912.09;4150461;34;20486;-83
2022/07/10 10:24:04;;;;;;;;;;;22.00;66.90;;;21.38;62.14;95907.31;4157977;34;19904;-83
2022/07/10 10:26:33;;;;;;;;;;;22.00;66.90;;;21.39;61.88;95902.56;4155544;34;19910;-83
2022/07/10 10:29:03;;;;;;;;;;;22.00;66.60;;;21.41;62.06;95905.81;4155307;34;20241;-83
2022/07/10 10:31:31;;;;;;;;;;;22.10;66.90;;;21.42;61.95;95907.44;4201225;33;19977;-83
2022/07/10 10:34:00;;;;;;;;;;;22.00;66.70;;;21.41;62.02;95906.63;4179122;34;19903;-82
2022/07/10 10:36:47;;;;;;;;;;;22.10;66.90;;;21.43;62.11;95898.75;4178457;34;20068;-83
2022/07/10 10:39:18;;;;;;;;;;;22.00;66.90;;;21.43;62.17;95909.88;4178078;34;20129;-83
2022/07/10 10:41:52;;;;;;;;;;;22.00;66.80;;;21.43;61.95;95906.25;4154934;34;19989;-83
2022/07/10 10:44:32;;;;;;;;;;;22.00;66.80;;;21.44;61.90;95911.50;4201174;33;19904;-83
2022/07/10 10:47:07;;;;;;;;;;;22.10;67.00;;;21.45;61.87;95904.78;4178284;34;20064;-83
2022/07/10 10:49:59;;;;;;;;;;;22.10;66.80;;;21.46;61.99;95913.94;4155133;34;20107;-83
2022/07/10 10:52:29;;;;;;;;;;;22.10;66.80;;;21.46;61.93;95903.63;4154749;34;19911;-83
2022/07/10 10:55:08;;;;;;;;;;;22.10;66.90;;;21.47;61.81;95904.41;4178930;34;19904;-83
2022/07/10 10:57:47;;;;;;;;;;;22.10;66.70;;;21.48;62.00;95902.47;4154549;34;19903;-82
2022/07/10 11:00:37;;;;;;;;;;;22.10;66.60;;;21.49;61.97;95895.72;4127991;34;20183;-83
2022/07/10 11:03:23;;;;;;;;;;;22.10;66.70;;;21.49;61.74;95885.38;4149824;34;20122;-83
2022/07/10 11:05:52;;;;;;;;;;;22.10;66.60;;;21.50;62.03;95884.22;4150523;34;19908;-83
2022/07/10 11:08:43;;;;;;;;;;;22.20;66.70;;;21.50;61.82;95880.63;4127573;34;19919;-83
2022/07/10 11:11:45;;;;;;;;;;;22.20;66.60;;;21.50;61.72;95872.25;4150545;34;19911;-83
2022/07/10 11:14:19;;;;;;;;;;;22.10;66.60;;;21.50;61.90;95863.91;4173212;34;19904;-83
2022/07/10 11:16:49;;;;;;;;;;;22.10;66.50;;;21.47;61.73;95862.63;4127630;34;19910;-83
2022/07/10 11:19:46;;;;;;;;;;;22.20;66.60;;;21.48;61.73;95864.28;4150250;34;20399;-82
2022/07/10 11:23:26;;;;;;;;;;;22.10;66.50;;;21.47;61.99;95857.06;4168167;34;20000;-82
2022/07/10 11:26:08;;;;;;;;;;;22.10;66.50;;;21.46;61.94;95856.28;4100746;34;19911;-83
2022/07/10 11:28:53;;;;;;;;;;;22.10;66.70;;;21.48;61.82;95860.69;4100835;34;19985;-83
2022/07/10 11:31:23;;;;;;;;;;;22.10;66.60;;;21.48;61.88;95860.69;4123798;34;20260;-82
2022/07/10 11:33:54;;;;;;;;;;;22.10;66.70;;;21.46;62.04;95852.66;4100786;34;20063;-83
2022/07/10 11:36:28;;;;;;;;;;;22.10;67.70;;;21.48;61.95;95849.53;4100697;34;19904;-83
2022/07/10 11:39:02;;;;;;;;;;;22.10;66.70;;;21.49;62.15;95856.75;4100653;34;19911;-82
2022/07/10 11:41:32;;;;;;;;;;;22.10;66.80;;;21.45;62.06;95849.06;4122543;34;19939;-82
2022/07/10 11:44:02;;;;;;;;;;;22.10;66.80;;;21.46;61.90;95853.50;4122989;34;20246;-82
2022/07/10 11:46:32;;;;;;;;;;;22.10;66.80;;;21.48;61.97;95849.53;4122853;34;20124;-83
2022/07/10 11:49:04;;;;;;;;;;;22.10;66.60;;;21.46;62.12;95847.91;4100435;34;19904;-83